Time;durP1;ratioP1;P1;durP2;ratioP2;P2;SDS_P1;SDS_P2;PMS_P1;PMS_P2;Temp;Humidity;BMP_temperature;BMP_pressure;BME280_temperature;BME280_humidity;BME280_pressure;Samples;Min_cycle;Max_cycle;Signal;HPM_P1;HPM_P2
2022/04/30 00:00:29;;;;;;;;;;;;;;;16.41;71.15;100178.72;4934910;29;20013;-91
2022/04/30 00:02:59;;;;;;;;;;;;;;;16.54;70.46;100181.88;4950863;29;19919;-90
2022/04/30 00:05:30;;;;;;;;;;;;;;;16.53;70.89;100172.13;4949373;29;19925;-93
2022/04/30 00:07:56;;;;;;;;;;;;;;;16.69;70.10;100184.03;4951618;28;19922;-93
2022/04/30 00:10:21;;;;;;;;;;;;;;;16.64;70.21;100178.84;4951312;29;19977;-93
2022/04/30 00:12:47;;;;;;;;;;;;;;;16.46;71.04;100180.31;4951857;28;19914;-93
2022/04/30 00:15:13;;;;;;;;;;;;;;;16.44;71.10;100179.50;4950250;29;20309;-89
2022/04/30 00:17:38;;;;;;;;;;;;;;;16.34;71.58;100177.16;4950991;28;20294;-89
2022/04/30 00:20:05;;;;;;;;;;;;;;;16.21;71.99;100168.69;4945518;29;19926;-91
2022/04/30 00:22:30;;;;;;;;;;;;;;;16.10;72.25;100169.03;4950036;29;19921;-91
2022/04/30 00:24:55;;;;;;;;;;;;;;;15.87;73.36;100175.03;4950262;29;19919;-91
2022/04/30 00:27:21;;;;;;;;;;;;;;;15.83;73.92;100168.91;4951611;28;19918;-90
2022/04/30 00:29:46;;;;;;;;;;;;;;;15.82;75.36;100168.94;4952321;28;19924;-90
2022/04/30 00:32:12;;;;;;;;;;;;;;;15.72;76.07;100163.91;4954273;28;19922;-90
2022/04/30 00:34:38;;;;;;;;;;;;;;;15.64;76.62;100165.88;4953293;28;19948;-90
2022/04/30 00:37:03;;;;;;;;;;;;;;;15.58;76.55;100169.59;4953339;28;19914;-90
2022/04/30 00:39:31;;;;;;;;;;;;;;;15.71;76.25;100170.13;4952488;28;20005;-88
2022/04/30 00:41:56;;;;;;;;;;;;;;;15.74;75.96;100164.72;4952361;28;19926;-91
2022/04/30 00:44:23;;;;;;;;;;;;;;;15.72;75.82;100174.53;4950617;28;19918;-91
2022/04/30 00:46:48;;;;;;;;;;;;;;;15.64;76.50;100168.53;4950722;29;19915;-90
2022/04/30 00:49:14;;;;;;;;;;;;;;;15.50;75.91;100158.28;4953574;28;20352;-92
2022/04/30 00:51:40;;;;;;;;;;;;;;;15.52;76.08;100147.63;4950697;29;19997;-90
2022/04/30 00:54:07;;;;;;;;;;;;;;;15.37;76.42;100159.56;4952003;29;19914;-90
2022/04/30 00:56:34;;;;;;;;;;;;;;;15.42;75.84;100157.66;4951398;28;20413;-90
2022/04/30 00:59:04;;;;;;;;;;;;;;;15.34;75.96;100151.69;4952493;29;19918;-90
2022/04/30 01:01:34;;;;;;;;;;;;;;;15.14;77.04;100149.56;4952031;28;19914;-89
2022/04/30 01:03:59;;;;;;;;;;;;;;;15.01;77.45;100143.66;4950242;29;19928;-89
2022/04/30 01:06:38;;;;;;;;;;;;;;;14.95;77.69;100139.41;4951017;28;20313;-90
2022/04/30 01:09:04;;;;;;;;;;;;;;;15.10;77.61;100143.44;4949760;29;19918;-88
2022/04/30 01:11:30;;;;;;;;;;;;;;;15.20;76.76;100144.94;4951348;29;19918;-89
2022/04/30 01:13:55;;;;;;;;;;;;;;;15.25;75.49;100139.50;4950553;29;20008;-88
2022/04/30 01:16:21;;;;;;;;;;;;;;;15.26;75.48;100137.72;4950662;29;19965;-89
2022/04/30 01:18:46;;;;;;;;;;;;;;;15.19;75.43;100142.31;4950046;28;19926;-89
2022/04/30 01:21:12;;;;;;;;;;;;;;;15.19;75.78;100143.19;4950802;28;19933;-89
2022/04/30 01:23:40;;;;;;;;;;;;;;;15.37;75.26;100133.84;4949604;29;20017;-89
2022/04/30 01:26:08;;;;;;;;;;;;;;;15.21;74.74;100141.38;4951826;28;19918;-89
2022/04/30 01:28:33;;;;;;;;;;;;;;;15.15;75.06;100141.53;4950806;28;19922;-90
2022/04/30 01:30:59;;;;;;;;;;;;;;;15.14;75.21;100144.25;4950724;28;20390;-89
2022/04/30 01:38:59;;;;;;;;;;;;;;;15.10;75.74;100140.78;4950788;29;19933;-91
2022/04/30 01:41:24;;;;;;;;;;;;;;;15.11;76.28;100131.03;4950421;28;19918;-90
2022/04/30 01:43:50;;;;;;;;;;;;;;;15.17;75.89;100129.06;4950613;28;19918;-90
2022/04/30 01:46:16;;;;;;;;;;;;;;;15.09;76.88;100131.09;4951247;28;20397;-92
2022/04/30 01:48:41;;;;;;;;;;;;;;;15.24;75.97;100131.56;4950432;28;20076;-89
2022/04/30 01:51:06;;;;;;;;;;;;;;;15.29;75.93;100129.66;4949997;29;19918;-90
2022/04/30 01:53:32;;;;;;;;;;;;;;;15.40;74.91;100128.44;4950696;28;20537;-90
2022/04/30 01:55:58;;;;;;;;;;;;;;;15.52;74.25;100129.91;4950894;28;19918;-91
2022/04/30 01:58:24;;;;;;;;;;;;;;;15.45;74.57;100133.63;4952772;28;19962;-90
2022/04/30 02:00:49;;;;;;;;;;;;;;;15.38;74.83;100135.59;4972042;28;19938;-88
2022/04/30 02:03:15;;;;;;;;;;;;;;;15.42;75.23;100135.50;4975016;28;19910;-89
2022/04/30 02:05:41;;;;;;;;;;;;;;;15.31;75.29;100138.47;4974470;29;20001;-90
2022/04/30 02:08:07;;;;;;;;;;;;;;;15.35;75.25;100134.78;4973805;28;19926;-89
2022/04/30 02:10:36;;;;;;;;;;;;;;;15.40;75.18;100131.09;4973961;28;19910;-88
2022/04/30 02:13:02;;;;;;;;;;;;;;;15.42;75.45;100130.19;4973631;28;19922;-88
2022/04/30 02:15:29;;;;;;;;;;;;;;;15.50;74.86;100130.84;4953086;29;20066;-90
2022/04/30 02:17:56;;;;;;;;;;;;;;;15.62;74.23;100138.47;4970999;28;19915;-87
2022/04/30 02:20:23;;;;;;;;;;;;;;;15.47;75.14;100131.78;4955933;29;19909;-87
2022/04/30 02:22:54;;;;;;;;;;;;;;;15.53;74.55;100128.09;4956632;29;19915;-88
2022/04/30 02:25:20;;;;;;;;;;;;;;;15.51;74.53;100133.47;4975106;28;19926;-88
2022/04/30 02:27:50;;;;;;;;;;;;;;;15.46;75.05;100124.75;4974002;28;19926;-88
2022/04/30 02:30:19;;;;;;;;;;;;;;;15.54;74.18;100127.19;4973804;28;19982;-87
2022/04/30 02:32:46;;;;;;;;;;;;;;;15.55;74.23;100127.16;4974146;29;19915;-88
2022/04/30 02:35:14;;;;;;;;;;;;;;;15.58;74.63;100129.72;4973660;28;19902;-88
2022/04/30 02:37:39;;;;;;;;;;;;;;;15.52;74.68;100123.69;4974777;28;19914;-88
2022/04/30 02:40:05;;;;;;;;;;;;;;;15.37;75.44;100119.69;4974729;29;19924;-88
2022/04/30 02:42:30;;;;;;;;;;;;;;;15.47;74.71;100114.97;4973951;29;19922;-88
2022/04/30 02:44:55;;;;;;;;;;;;;;;15.29;75.91;100119.00;4975326;28;19942;-87
2022/04/30 02:47:21;;;;;;;;;;;;;;;15.43;75.17;100116.88;4974047;29;19922;-88
2022/04/30 02:49:46;;;;;;;;;;;;;;;15.39;75.82;100118.72;4974126;28;20372;-88
2022/04/30 02:52:11;;;;;;;;;;;;;;;15.39;75.54;100128.50;4975375;28;19933;-88
2022/04/30 02:54:37;;;;;;;;;;;;;;;15.46;75.00;100135.38;4974696;28;19907;-88
2022/04/30 02:57:03;;;;;;;;;;;;;;;15.39;75.42;100126.69;4975495;28;19918;-89
2022/04/30 03:02:12;;;;;;;;;;;;;;;15.51;75.06;100128.13;4964478;29;20376;-90
2022/04/30 03:04:38;;;;;;;;;;;;;;;15.68;74.17;100126.78;4950512;29;19962;-89
2022/04/30 03:07:04;;;;;;;;;;;;;;;15.64;73.86;100131.31;4951284;28;20428;-89
2022/04/30 03:09:30;;;;;;;;;;;;;;;15.68;73.51;100126.78;4951350;28;19997;-88
2022/04/30 03:11:56;;;;;;;;;;;;;;;15.80;73.66;100128.22;4952915;29;19976;-89
2022/04/30 03:14:21;;;;;;;;;;;;;;;15.86;72.73;100126.25;4954897;28;20448;-89
2022/04/30 03:22:14;;;;;;;;;;;;;;;15.73;73.09;100128.38;4955639;29;20016;-91
2022/04/30 03:24:40;;;;;;;;;;;;;;;15.67;73.67;100133.03;4954641;29;20780;-92
2022/04/30 03:27:06;;;;;;;;;;;;;;;15.56;74.01;100128.00;4953006;29;19954;-91
2022/04/30 03:29:32;;;;;;;;;;;;;;;15.58;73.87;100132.38;4953604;28;20294;-91
2022/04/30 03:31:58;;;;;;;;;;;;;;;15.45;74.84;100132.78;4952903;29;19953;-90
2022/04/30 03:34:24;;;;;;;;;;;;;;;15.45;74.53;100133.63;4953869;29;19919;-93
2022/04/30 03:36:49;;;;;;;;;;;;;;;15.51;75.18;100135.25;4952842;28;20592;-92
2022/04/30 03:39:15;;;;;;;;;;;;;;;15.43;74.75;100138.13;4954137;28;19918;-90
2022/04/30 03:41:40;;;;;;;;;;;;;;;15.52;74.32;100143.19;4952547;28;19926;-89
2022/04/30 03:44:07;;;;;;;;;;;;;;;15.55;74.41;100137.78;4951695;28;20349;-90
2022/04/30 03:46:33;;;;;;;;;;;;;;;15.32;75.97;100145.50;4954470;28;20380;-89
2022/04/30 03:49:00;;;;;;;;;;;;;;;15.33;75.72;100144.59;4952465;28;19918;-90
2022/04/30 03:51:25;;;;;;;;;;;;;;;15.40;75.41;100135.56;4953572;28;19918;-90
2022/04/30 03:53:51;;;;;;;;;;;;;;;15.15;76.76;100135.34;4952307;28;19944;-89
2022/04/30 03:56:17;;;;;;;;;;;;;;;15.09;77.52;100136.41;4952137;28;19926;-89
2022/04/30 03:58:43;;;;;;;;;;;;;;;15.03;77.69;100136.56;4951866;29;20090;-89
2022/04/30 04:01:08;;;;;;;;;;;;;;;15.03;77.95;100141.88;4952244;28;19923;-88
2022/04/30 04:03:33;;;;;;;;;;;;;;;14.82;78.20;100140.63;4952202;28;19945;-88
2022/04/30 04:05:59;;;;;;;;;;;;;;;14.87;78.29;100144.03;4951489;29;19918;-88
2022/04/30 04:08:25;;;;;;;;;;;;;;;14.85;78.28;100140.53;4952475;28;19918;-89
2022/04/30 04:10:50;;;;;;;;;;;;;;;14.91;78.50;100142.19;4951623;28;19922;-88
2022/04/30 04:18:44;;;;;;;;;;;;;;;15.00;77.39;100157.88;4953835;28;19929;-90
2022/04/30 04:21:10;;;;;;;;;;;;;;;15.01;77.50;100160.50;4953126;28;19922;-90
2022/04/30 04:26:19;;;;;;;;;;;;;;;15.11;76.90;100162.91;4952974;29;20316;-91
2022/04/30 04:28:45;;;;;;;;;;;;;;;15.10;77.59;100162.03;4949910;28;19918;-91
2022/04/30 04:31:11;;;;;;;;;;;;;;;15.13;76.88;100156.63;4952432;28;19918;-91
2022/04/30 04:33:38;;;;;;;;;;;;;;;15.44;76.12;100158.47;4952486;28;19962;-91
2022/04/30 04:36:05;;;;;;;;;;;;;;;15.47;76.01;100163.69;4951973;28;19918;-90
2022/04/30 04:38:30;;;;;;;;;;;;;;;15.47;75.57;100169.00;4934406;29;19922;-91
2022/04/30 04:40:55;;;;;;;;;;;;;;;15.49;75.80;100169.88;4951675;28;19929;-91
2022/04/30 04:43:21;;;;;;;;;;;;;;;15.62;74.92;100169.53;4952444;28;19919;-89
2022/04/30 04:45:46;;;;;;;;;;;;;;;15.57;76.00;100172.31;4951639;28;19922;-90
2022/04/30 04:48:12;;;;;;;;;;;;;;;15.64;75.42;100162.38;4951692;28;20360;-92
2022/04/30 04:50:39;;;;;;;;;;;;;;;15.66;75.10;100169.38;4952404;28;19921;-92
2022/04/30 04:53:04;;;;;;;;;;;;;;;15.60;75.52;100160.69;4951484;28;19919;-90
2022/04/30 04:55:29;;;;;;;;;;;;;;;15.68;76.13;100167.53;4952069;29;19918;-90
2022/04/30 04:57:55;;;;;;;;;;;;;;;15.71;75.04;100166.59;4951146;28;20017;-90
2022/04/30 05:00:20;;;;;;;;;;;;;;;15.77;75.27;100171.78;4949781;29;19925;-90
2022/04/30 05:02:47;;;;;;;;;;;;;;;15.84;74.52;100170.66;4953746;29;20016;-90
2022/04/30 05:05:13;;;;;;;;;;;;;;;15.71;75.49;100169.25;4951366;28;19918;-88
2022/04/30 05:07:38;;;;;;;;;;;;;;;15.86;74.87;100170.63;4951353;28;19929;-89
2022/04/30 05:10:04;;;;;;;;;;;;;;;15.87;74.67;100178.56;4949737;29;19926;-89
2022/04/30 05:12:31;;;;;;;;;;;;;;;16.09;74.34;100177.91;4951894;28;19915;-89
2022/04/30 05:14:56;;;;;;;;;;;;;;;16.15;74.81;100182.19;4951939;28;19919;-90
2022/04/30 05:17:22;;;;;;;;;;;;;;;16.36;74.29;100183.31;4943738;28;19933;-91
2022/04/30 05:19:47;;;;;;;;;;;;;;;16.46;73.37;100193.63;4967334;28;20449;-89
2022/04/30 05:22:14;;;;;;;;;;;;;;;16.57;72.39;100195.09;4951417;28;20382;-91
2022/04/30 05:24:39;;;;;;;;;;;;;;;16.56;71.94;100198.66;4950437;29;20020;-90
2022/04/30 05:27:04;;;;;;;;;;;;;;;16.54;71.84;100204.03;4941008;28;20014;-89
2022/04/30 05:29:30;;;;;;;;;;;;;;;16.50;72.47;100204.16;4951792;28;19923;-96
2022/04/30 05:31:56;;;;;;;;;;;;;;;16.76;71.81;100208.66;4944391;28;19926;-94
2022/04/30 05:34:21;;;;;;;;;;;;;;;16.83;71.48;100205.75;4948366;29;19930;-96
2022/04/30 05:36:47;;;;;;;;;;;;;;;16.91;71.14;100205.53;4951179;28;19994;-93
2022/04/30 05:39:13;;;;;;;;;;;;;;;16.87;70.71;100203.03;4952479;28;20009;-94
2022/04/30 05:41:38;;;;;;;;;;;;;;;16.80;70.90;100207.66;4947478;29;19918;-91
2022/04/30 05:44:04;;;;;;;;;;;;;;;16.83;69.61;100218.22;4922322;29;20040;-91
2022/04/30 05:46:30;;;;;;;;;;;;;;;16.97;69.85;100217.81;4954328;28;19919;-92
2022/04/30 05:48:55;;;;;;;;;;;;;;;17.13;69.45;100219.03;4956110;28;19988;-91
2022/04/30 05:51:21;;;;;;;;;;;;;;;17.22;68.87;100224.97;4967623;28;19906;-93
2022/04/30 05:53:48;;;;;;;;;;;;;;;17.33;68.79;100222.81;4973366;28;19918;-91
2022/04/30 05:56:14;;;;;;;;;;;;;;;17.20;69.24;100227.69;4968084;29;19933;-90
2022/04/30 05:58:40;;;;;;;;;;;;;;;17.46;68.19;100223.25;4990930;28;20275;-89
2022/04/30 06:01:05;;;;;;;;;;;;;;;17.60;67.50;100225.44;4975327;28;19938;-89
2022/04/30 06:03:32;;;;;;;;;;;;;;;17.34;67.30;100225.41;4975886;28;19974;-87
2022/04/30 06:05:58;;;;;;;;;;;;;;;17.44;67.29;100231.31;4975177;28;19914;-90
2022/04/30 06:08:24;;;;;;;;;;;;;;;17.71;66.28;100229.44;4955013;29;19981;-91
2022/04/30 06:10:50;;;;;;;;;;;;;;;17.88;65.80;100219.97;4934162;29;19949;-93
2022/04/30 06:13:15;;;;;;;;;;;;;;;17.69;66.39;100217.97;4948238;29;19950;-90
2022/04/30 06:15:41;;;;;;;;;;;;;;;17.53;66.76;100220.31;4948508;28;19929;-90
2022/04/30 06:18:08;;;;;;;;;;;;;;;17.72;66.14;100219.66;4950222;28;19914;-90
2022/04/30 06:20:33;;;;;;;;;;;;;;;17.48;66.60;100218.75;4946240;29;19923;-91
2022/04/30 06:22:59;;;;;;;;;;;;;;;17.75;66.17;100213.31;4942744;29;20295;-91
2022/04/30 06:25:24;;;;;;;;;;;;;;;17.93;65.85;100212.69;4940167;28;19929;-93
2022/04/30 06:27:50;;;;;;;;;;;;;;;18.20;65.01;100218.78;4941133;28;19945;-91
2022/04/30 06:30:16;;;;;;;;;;;;;;;17.97;64.76;100216.13;4955807;29;19919;-94
2022/04/30 06:32:43;;;;;;;;;;;;;;;17.98;65.70;100210.75;4952842;29;19973;-95
2022/04/30 06:35:08;;;;;;;;;;;;;;;17.96;64.23;100207.22;4948531;29;19965;-94
2022/04/30 06:37:34;;;;;;;;;;;;;;;18.07;65.38;100217.50;4941229;28;19976;-93
2022/04/30 06:39:59;;;;;;;;;;;;;;;18.24;64.05;100215.09;4940035;29;19981;-90
2022/04/30 06:42:24;;;;;;;;;;;;;;;18.34;64.45;100207.56;4945934;28;20431;-90
2022/04/30 06:44:51;;;;;;;;;;;;;;;18.40;63.44;100207.34;4947675;28;19929;-91
2022/04/30 06:47:18;;;;;;;;;;;;;;;18.60;60.31;100211.91;4952363;28;19921;-92
2022/04/30 06:49:44;;;;;;;;;;;;;;;18.78;58.29;100210.28;4953941;28;19914;-93
2022/04/30 06:52:10;;;;;;;;;;;;;;;19.09;57.66;100213.50;4954057;29;20358;-91
2022/04/30 06:57:22;;;;;;;;;;;;;;;19.84;56.23;100202.22;4952656;29;20401;-90
2022/04/30 06:59:51;;;;;;;;;;;;;;;20.77;53.33;100207.78;4951351;29;19923;-91
2022/04/30 07:02:21;;;;;;;;;;;;;;;21.24;52.47;100210.75;4951746;28;20009;-91
2022/04/30 07:04:50;;;;;;;;;;;;;;;21.55;49.67;100203.84;4951148;29;19918;-90
2022/04/30 07:07:15;;;;;;;;;;;;;;;21.65;47.34;100209.56;4952383;28;19920;-90
2022/04/30 07:09:41;;;;;;;;;;;;;;;21.77;48.95;100200.00;4950498;28;19922;-85
2022/04/30 07:12:09;;;;;;;;;;;;;;;21.26;49.78;100205.31;4952465;28;19918;-86
2022/04/30 07:14:36;;;;;;;;;;;;;;;21.36;48.50;100198.50;4957017;28;19918;-93
2022/04/30 07:17:05;;;;;;;;;;;;;;;20.99;49.46;100207.56;4947528;29;20716;-96
2022/04/30 07:19:30;;;;;;;;;;;;;;;20.84;48.94;100196.66;4953773;28;19922;-93
2022/04/30 07:21:56;;;;;;;;;;;;;;;21.02;47.22;100205.63;4952669;29;20371;-91
2022/04/30 07:24:21;;;;;;;;;;;;;;;21.52;49.03;100206.66;4955522;28;19922;-93
2022/04/30 07:26:47;;;;;;;;;;;;;;;22.08;46.84;100206.41;4950779;28;19918;-94
2022/04/30 07:29:15;;;;;;;;;;;;;;;22.31;48.25;100197.09;4951709;29;19922;-91
2022/04/30 07:31:40;;;;;;;;;;;;;;;22.03;46.01;100203.97;4950790;29;19923;-94
2022/04/30 07:34:09;;;;;;;;;;;;;;;21.87;45.92;100208.41;4942785;29;19923;-92
2022/04/30 07:36:41;;;;;;;;;;;;;;;21.77;46.37;100218.81;4959451;29;19925;-95
2022/04/30 07:39:10;;;;;;;;;;;;;;;22.31;46.06;100195.28;4956784;29;19945;-92
2022/04/30 07:41:36;;;;;;;;;;;;;;;22.50;44.41;100200.47;4958367;29;19922;-95
2022/04/30 07:44:02;;;;;;;;;;;;;;;22.79;43.94;100194.41;4960082;29;19910;-91
2022/04/30 07:46:27;;;;;;;;;;;;;;;22.43;44.29;100196.41;4956968;29;20001;-95
2022/04/30 07:48:53;;;;;;;;;;;;;;;22.26;42.05;100196.44;4941244;29;20385;-92
2022/04/30 07:51:34;;;;;;;;;;;;;;;22.33;42.58;100189.81;4952980;29;19969;-95
2022/04/30 07:54:02;;;;;;;;;;;;;;;21.96;44.17;100187.28;4939147;28;19973;-94
2022/04/30 07:56:28;;;;;;;;;;;;;;;21.55;44.84;100193.09;4952361;29;19925;-88
2022/04/30 07:58:54;;;;;;;;;;;;;;;21.40;44.54;100196.53;4953637;28;19919;-89
2022/04/30 08:01:21;;;;;;;;;;;;;;;21.14;44.84;100195.22;4951999;29;20318;-89
2022/04/30 08:03:46;;;;;;;;;;;;;;;21.49;46.27;100187.13;4953460;29;19945;-86
2022/04/30 08:06:11;;;;;;;;;;;;;;;21.90;42.17;100182.25;4952273;29;19922;-86
2022/04/30 08:08:38;;;;;;;;;;;;;;;21.62;43.22;100186.44;4952813;28;20385;-87
2022/04/30 08:11:03;;;;;;;;;;;;;;;21.38;43.45;100185.91;4941583;28;20001;-86
2022/04/30 08:13:29;;;;;;;;;;;;;;;21.72;43.37;100184.16;4933117;29;20037;-89
2022/04/30 08:15:54;;;;;;;;;;;;;;;22.05;43.41;100180.56;4933893;29;20327;-89
2022/04/30 08:18:19;;;;;;;;;;;;;;;22.22;44.48;100181.47;4934334;29;20452;-89
2022/04/30 08:20:46;;;;;;;;;;;;;;;22.65;41.23;100177.22;4930100;29;20290;-89
2022/04/30 08:23:12;;;;;;;;;;;;;;;22.18;41.96;100172.69;4931714;29;19962;-89
2022/04/30 08:25:38;;;;;;;;;;;;;;;21.56;41.98;100183.22;4933945;29;19960;-91
2022/04/30 08:28:03;;;;;;;;;;;;;;;21.72;42.39;100180.56;4949947;28;19985;-95
2022/04/30 08:30:29;;;;;;;;;;;;;;;21.79;42.17;100185.53;4952209;29;19918;-94
2022/04/30 08:32:54;;;;;;;;;;;;;;;22.32;41.68;100171.94;4952490;29;19922;-93
2022/04/30 08:35:20;;;;;;;;;;;;;;;22.29;40.98;100172.09;4952088;28;19918;-92
2022/04/30 08:37:46;;;;;;;;;;;;;;;22.26;43.41;100167.78;4951093;29;20432;-90
2022/04/30 08:40:12;;;;;;;;;;;;;;;22.26;41.67;100173.13;4952912;28;19981;-88
2022/04/30 08:42:38;;;;;;;;;;;;;;;22.25;41.85;100162.47;4952909;28;19918;-89
2022/04/30 08:45:06;;;;;;;;;;;;;;;22.08;41.69;100172.34;4951319;28;20069;-86
2022/04/30 08:47:32;;;;;;;;;;;;;;;22.10;42.20;100165.06;4950972;28;19955;-88
2022/04/30 08:50:00;;;;;;;;;;;;;;;22.04;41.36;100165.38;4951239;28;19946;-90
2022/04/30 08:52:25;;;;;;;;;;;;;;;22.18;40.51;100164.63;4951718;28;19926;-93
2022/04/30 08:54:50;;;;;;;;;;;;;;;22.52;44.33;100165.44;4952899;28;19922;-92
2022/04/30 08:57:16;;;;;;;;;;;;;;;22.68;41.61;100160.91;4948023;28;20302;-91
2022/04/30 08:59:42;;;;;;;;;;;;;;;22.83;38.03;100160.97;4951814;29;19928;-92
2022/04/30 09:02:08;;;;;;;;;;;;;;;23.34;38.74;100148.09;4951962;29;19955;-93
2022/04/30 09:04:42;;;;;;;;;;;;;;;23.34;38.42;100144.53;4942112;29;19926;-93
2022/04/30 09:07:11;;;;;;;;;;;;;;;22.41;38.81;100141.00;4949760;28;19922;-94
2022/04/30 09:09:40;;;;;;;;;;;;;;;22.91;39.12;100142.56;4950201;29;19962;-93
2022/04/30 09:12:07;;;;;;;;;;;;;;;23.06;39.91;100136.28;4940383;29;19919;-90
2022/04/30 09:14:33;;;;;;;;;;;;;;;22.83;37.56;100134.97;4940090;28;19930;-90
2022/04/30 09:17:02;;;;;;;;;;;;;;;22.64;37.97;100137.00;4943170;29;19926;-89
2022/04/30 09:19:28;;;;;;;;;;;;;;;22.85;39.51;100137.56;4945853;28;20010;-88
2022/04/30 09:21:53;;;;;;;;;;;;;;;22.78;38.97;100139.72;4939586;29;20009;-89
2022/04/30 09:24:19;;;;;;;;;;;;;;;22.76;37.72;100140.78;4939887;29;19922;-89
2022/04/30 09:26:44;;;;;;;;;;;;;;;22.46;38.41;100145.16;4941964;29;19937;-90
2022/04/30 09:29:22;;;;;;;;;;;;;;;22.21;39.22;100139.41;4938223;29;20412;-89
2022/04/30 09:31:49;;;;;;;;;;;;;;;22.59;38.50;100134.56;4935505;29;19969;-92
2022/04/30 09:39:43;;;;;;;;;;;;;;;22.71;38.77;100133.84;4931839;29;20408;-93
2022/04/30 09:42:08;;;;;;;;;;;;;;;22.73;37.96;100125.69;4929287;29;19919;-91
2022/04/30 09:44:40;;;;;;;;;;;;;;;22.45;39.18;100123.75;4934637;29;19985;-92
2022/04/30 09:47:08;;;;;;;;;;;;;;;21.91;39.76;100114.19;4940103;29;19953;-94
2022/04/30 09:55:03;;;;;;;;;;;;;;;22.46;39.44;100103.97;4940466;29;19930;-92
2022/04/30 09:57:30;;;;;;;;;;;;;;;22.71;41.82;100103.41;4937466;29;20382;-94
2022/04/30 09:59:59;;;;;;;;;;;;;;;22.91;39.70;100104.03;4937050;29;19954;-91
2022/04/30 10:02:25;;;;;;;;;;;;;;;23.17;42.65;100097.13;4940022;29;19911;-95
2022/04/30 10:04:52;;;;;;;;;;;;;;;23.05;39.91;100096.03;4943952;29;19918;-92
2022/04/30 10:07:21;;;;;;;;;;;;;;;22.89;38.49;100093.38;4949875;29;19918;-95
2022/04/30 10:10:12;;;;;;;;;;;;;;;23.15;38.82;100090.97;4949724;29;19973;-92
2022/04/30 10:12:46;;;;;;;;;;;;;;;22.96;38.54;100093.88;4942166;28;20013;-94
2022/04/30 10:15:25;;;;;;;;;;;;;;;22.71;39.16;100090.84;4951582;28;19934;-87
2022/04/30 10:17:54;;;;;;;;;;;;;;;23.06;37.96;100093.25;4952198;28;19926;-89
2022/04/30 10:20:32;;;;;;;;;;;;;;;22.77;38.14;100089.63;4953180;28;19929;-91
2022/04/30 10:22:59;;;;;;;;;;;;;;;22.93;37.94;100086.84;4954542;29;19922;-93
2022/04/30 10:25:32;;;;;;;;;;;;;;;23.04;36.85;100083.53;4954982;28;19926;-94
2022/04/30 10:27:59;;;;;;;;;;;;;;;22.86;37.44;100080.09;4955188;29;20375;-90
2022/04/30 10:30:24;;;;;;;;;;;;;;;22.93;38.84;100077.94;4953811;29;20328;-94
2022/04/30 10:33:16;;;;;;;;;;;;;;;22.41;39.02;100080.03;4954806;29;19918;-95
2022/04/30 10:35:45;;;;;;;;;;;;;;;22.63;39.29;100077.00;4952259;29;19922;-94
2022/04/30 10:38:15;;;;;;;;;;;;;;;22.93;36.37;100077.94;4956884;28;20464;-95
2022/04/30 10:41:01;;;;;;;;;;;;;;;23.02;36.86;100072.84;4937152;29;19919;-93
2022/04/30 10:43:39;;;;;;;;;;;;;;;23.30;37.16;100070.34;4932634;29;19950;-96
2022/04/30 10:46:05;;;;;;;;;;;;;;;23.64;37.62;100066.38;4918170;29;19922;-93
2022/04/30 10:48:39;;;;;;;;;;;;;;;22.98;38.66;100068.59;4937106;29;19914;-93
2022/04/30 10:51:05;;;;;;;;;;;;;;;23.00;36.47;100069.41;4920686;29;20017;-87
2022/04/30 10:53:31;;;;;;;;;;;;;;;23.15;37.86;100064.91;4933574;29;19914;-88
2022/04/30 10:55:56;;;;;;;;;;;;;;;23.02;37.01;100069.31;4933735;29;19918;-89
2022/04/30 10:58:23;;;;;;;;;;;;;;;22.75;35.97;100063.75;4933390;29;20381;-89
2022/04/30 11:00:48;;;;;;;;;;;;;;;22.82;37.39;100065.13;4933349;29;19918;-91
2022/04/30 11:03:14;;;;;;;;;;;;;;;22.75;38.90;100055.69;4933435;29;19926;-90
2022/04/30 11:05:42;;;;;;;;;;;;;;;22.03;39.37;100064.28;4933883;29;20038;-90
2022/04/30 11:08:07;;;;;;;;;;;;;;;22.00;40.04;100062.63;4933498;29;19925;-91
2022/04/30 11:10:35;;;;;;;;;;;;;;;22.21;40.18;100053.44;4933606;29;19914;-89
2022/04/30 11:13:01;;;;;;;;;;;;;;;22.55;38.14;100049.66;4935221;29;19918;-91
2022/04/30 11:15:27;;;;;;;;;;;;;;;22.82;36.74;100049.00;4961442;28;19980;-91
2022/04/30 11:17:57;;;;;;;;;;;;;;;23.30;37.04;100041.59;4967284;28;19918;-91
2022/04/30 11:20:23;;;;;;;;;;;;;;;23.59;36.05;100044.28;4967107;28;20750;-89
2022/04/30 11:22:55;;;;;;;;;;;;;;;23.51;35.63;100038.50;4969071;28;19977;-90
2022/04/30 11:25:22;;;;;;;;;;;;;;;23.46;35.23;100041.47;4967948;28;19957;-89
2022/04/30 11:27:48;;;;;;;;;;;;;;;23.37;37.64;100031.28;4970599;28;19914;-90
2022/04/30 11:30:13;;;;;;;;;;;;;;;23.24;38.49;100033.91;4968503;28;20348;-91
2022/04/30 11:32:38;;;;;;;;;;;;;;;23.33;36.50;100040.53;4968809;28;19918;-87
2022/04/30 11:35:04;;;;;;;;;;;;;;;23.04;37.80;100035.94;4970760;28;20335;-89
2022/04/30 11:37:40;;;;;;;;;;;;;;;23.03;37.34;100027.97;4970674;28;19914;-89
2022/04/30 11:40:06;;;;;;;;;;;;;;;23.34;39.35;100020.72;4970796;28;19977;-90
2022/04/30 11:42:31;;;;;;;;;;;;;;;23.35;38.05;100028.69;4969959;28;20321;-90
2022/04/30 11:44:56;;;;;;;;;;;;;;;23.51;37.04;100014.25;4970744;28;20319;-88
2022/04/30 11:47:22;;;;;;;;;;;;;;;23.65;36.62;100014.25;4970048;28;20672;-89
2022/04/30 11:49:47;;;;;;;;;;;;;;;23.32;37.71;100025.34;4971273;28;19918;-89
2022/04/30 11:52:15;;;;;;;;;;;;;;;23.19;37.10;100019.88;4971136;28;19925;-89
2022/04/30 11:54:41;;;;;;;;;;;;;;;23.31;35.42;100010.16;4971130;28;20406;-91
2022/04/30 11:57:07;;;;;;;;;;;;;;;23.30;35.18;100008.44;4970793;28;19918;-89
2022/04/30 11:59:34;;;;;;;;;;;;;;;23.68;35.29;100008.69;4969392;28;20368;-89
2022/04/30 12:02:00;;;;;;;;;;;;;;;23.88;37.10;100015.50;4971046;28;19918;-90
2022/04/30 12:04:30;;;;;;;;;;;;;;;24.10;36.21;100012.25;4970818;28;20408;-89
2022/04/30 12:06:59;;;;;;;;;;;;;;;24.05;36.69;100010.81;4970250;28;19922;-88
2022/04/30 12:09:28;;;;;;;;;;;;;;;23.60;36.05;100002.91;4971331;28;20005;-90
2022/04/30 12:11:53;;;;;;;;;;;;;;;23.23;35.79;99997.16;4970875;28;19925;-90
2022/04/30 12:14:19;;;;;;;;;;;;;;;23.80;36.68;99995.38;4970566;28;19921;-88
2022/04/30 12:16:51;;;;;;;;;;;;;;;23.69;35.33;99986.16;4970692;28;19914;-91
2022/04/30 12:25:03;;;;;;;;;;;;;;;23.86;36.38;99979.69;4967110;28;19921;-90
2022/04/30 12:27:29;;;;;;;;;;;;;;;23.50;34.62;99981.09;4965018;28;19917;-90
2022/04/30 12:30:00;;;;;;;;;;;;;;;23.65;33.65;99981.94;4968639;28;19938;-90
2022/04/30 12:32:26;;;;;;;;;;;;;;;23.01;35.23;99981.50;4959379;28;20316;-89
2022/04/30 12:34:52;;;;;;;;;;;;;;;22.39;37.33;99973.63;4948861;29;19918;-89
2022/04/30 12:37:17;;;;;;;;;;;;;;;22.56;38.52;99969.91;4965181;28;19922;-88
2022/04/30 12:39:43;;;;;;;;;;;;;;;22.34;38.50;99976.59;4966339;28;19914;-89
2022/04/30 12:42:11;;;;;;;;;;;;;;;22.84;38.73;99977.16;4961924;28;19925;-88
2022/04/30 12:44:38;;;;;;;;;;;;;;;23.52;35.69;99975.63;4967046;28;19918;-91
2022/04/30 12:47:03;;;;;;;;;;;;;;;23.89;37.51;99973.25;4970110;28;19918;-89
2022/04/30 12:49:29;;;;;;;;;;;;;;;23.39;35.92;99956.72;4968417;28;19918;-88
2022/04/30 12:51:54;;;;;;;;;;;;;;;23.52;35.19;99963.00;4936826;29;19915;-90
2022/04/30 12:54:19;;;;;;;;;;;;;;;23.01;35.80;99963.50;4935071;29;19991;-88
2022/04/30 12:56:45;;;;;;;;;;;;;;;22.98;34.60;99952.09;4931915;29;19922;-89
2022/04/30 12:59:11;;;;;;;;;;;;;;;23.01;36.86;99958.13;4932951;29;20469;-88
2022/04/30 13:01:39;;;;;;;;;;;;;;;23.19;37.11;99947.22;4931596;29;19923;-89
2022/04/30 13:04:05;;;;;;;;;;;;;;;22.52;38.28;99959.34;4944594;29;19914;-86
2022/04/30 13:06:30;;;;;;;;;;;;;;;22.26;39.14;99957.31;4970522;28;19941;-90
2022/04/30 13:14:24;;;;;;;;;;;;;;;22.25;35.81;99942.16;4969348;28;20352;-91
2022/04/30 13:16:50;;;;;;;;;;;;;;;22.76;35.79;99937.28;4946111;28;19923;-90
2022/04/30 13:19:16;;;;;;;;;;;;;;;22.97;36.48;99929.72;4929060;29;19918;-93
2022/04/30 13:21:42;;;;;;;;;;;;;;;22.82;35.83;99933.38;4929316;29;20393;-96